Terminal Aerodrome Forecast
Issued by NWS Brownsville, TX

Home | Current Version | Previous Version | Text Only | Print | Product List | Glossary On
Versions: 1 2 3 4 5 6 7 8 9 10 11 12 13 14 15 16
094
FTUS44 KBRO 260532
TAFMFE
TAF
KMFE 260532Z 2606/2706 15015KT P6SM BKN015
     FM261500 15017G23KT P6SM SCT020 BKN030
     FM261800 15020G27KT P6SM FEW040
     FM270400 14015KT P6SM BKN015=

USA.gov is the U.S. government's official web portal to all federal, state and local government web resources and services.